Time;durP1;ratioP1;P1;durP2;ratioP2;P2;SDS_P1;SDS_P2;PMS_P1;PMS_P2;Temp;Humidity;BMP_temperature;BMP_pressure;BME280_temperature;BME280_humidity;BME280_pressure;Samples;Min_cycle;Max_cycle;Signal;HPM_P1;HPM_P2
2022/06/21 00:00:26;;;;;;;8.98;2.88;;;11.60;99.90;;;;;;5015946;28;20041;-82
2022/06/21 00:02:59;;;;;;;7.50;2.33;;;11.50;99.90;;;;;;5050432;28;20041;-81
2022/06/21 00:05:37;;;;;;;10.77;3.47;;;11.40;99.90;;;;;;5032354;28;20030;-80
2022/06/21 00:08:03;;;;;;;5.05;2.22;;;11.50;99.90;;;;;;5029852;28;20046;-80
2022/06/21 00:10:34;;;;;;;7.22;2.35;;;11.40;99.90;;;;;;5026323;28;20049;-81
2022/06/21 00:13:33;;;;;;;4.78;1.95;;;11.50;99.90;;;;;;5043470;28;20044;-80
2022/06/21 00:16:04;;;;;;;3.33;1.65;;;11.40;99.90;;;;;;5033197;28;20060;-84
2022/06/21 00:18:32;;;;;;;5.47;2.33;;;11.40;99.90;;;;;;5032098;28;20083;-82
2022/06/21 00:20:58;;;;;;;14.57;3.60;;;11.50;99.90;;;;;;5034391;28;20037;-82
2022/06/21 00:23:30;;;;;;;9.10;2.90;;;11.30;99.90;;;;;;5025911;28;20053;-81
2022/06/21 00:25:57;;;;;;;4.95;2.17;;;11.30;99.90;;;;;;5025294;28;20068;-82
2022/06/21 00:28:22;;;;;;;4.35;2.70;;;11.20;99.90;;;;;;5054632;28;20443;-82
2022/06/21 00:30:50;;;;;;;6.00;2.28;;;11.20;99.90;;;;;;5036652;28;20041;-83
2022/06/21 00:33:19;;;;;;;5.18;2.75;;;11.20;99.90;;;;;;5039165;28;20049;-82
2022/06/21 00:35:47;;;;;;;4.60;2.53;;;11.20;99.90;;;;;;4999075;28;20046;-82
2022/06/21 00:38:14;;;;;;;7.72;2.40;;;11.10;99.90;;;;;;5032548;28;20100;-82
2022/06/21 00:40:41;;;;;;;3.38;2.25;;;11.00;99.90;;;;;;5035684;28;20049;-82
2022/06/21 00:43:20;;;;;;;8.00;2.88;;;11.10;99.90;;;;;;5014293;28;20049;-83
2022/06/21 00:45:48;;;;;;;6.18;2.88;;;11.10;99.90;;;;;;5012998;28;20049;-82
2022/06/21 00:48:18;;;;;;;3.88;2.53;;;11.20;99.90;;;;;;5006747;28;20041;-82
2022/06/21 00:50:48;;;;;;;3.77;2.40;;;11.10;99.90;;;;;;5043446;28;20037;-82
2022/06/21 00:53:29;;;;;;;6.15;2.47;;;11.00;99.90;;;;;;5034100;28;20049;-83
2022/06/21 00:56:05;;;;;;;5.90;2.60;;;11.10;99.90;;;;;;5049880;28;20045;-83
2022/06/21 00:58:31;;;;;;;9.70;4.45;;;11.00;99.90;;;;;;5051190;28;20041;-81
2022/06/21 01:01:01;;;;;;;3.72;2.80;;;11.00;99.90;;;;;;4999668;28;20060;-81
2022/06/21 01:03:42;;;;;;;6.07;3.42;;;11.10;99.90;;;;;;5026469;28;20040;-83
2022/06/21 01:06:33;;;;;;;4.40;2.15;;;10.90;99.90;;;;;;5026254;28;20092;-83
2022/06/21 01:09:20;;;;;;;4.28;2.22;;;10.80;99.90;;;;;;5042388;28;20044;-82
2022/06/21 01:11:53;;;;;;;3.13;2.30;;;10.60;99.90;;;;;;5038392;28;20054;-82
2022/06/21 01:14:22;;;;;;;4.15;2.05;;;10.80;99.90;;;;;;5038877;28;20040;-82
2022/06/21 01:16:49;;;;;;;7.25;3.20;;;10.70;99.90;;;;;;5037216;28;20045;-82
2022/06/21 01:19:26;;;;;;;5.95;2.33;;;10.70;99.90;;;;;;5044714;28;20053;-82
2022/06/21 01:21:58;;;;;;;7.70;3.05;;;10.70;99.90;;;;;;5032092;28;20039;-82
2022/06/21 01:24:49;;;;;;;5.88;3.25;;;10.70;99.90;;;;;;5014137;28;20045;-82
2022/06/21 01:27:15;;;;;;;5.03;2.58;;;10.70;99.90;;;;;;4997265;28;20049;-82
2022/06/21 01:29:41;;;;;;;9.70;3.17;;;10.60;99.90;;;;;;5010105;28;20044;-82
2022/06/21 01:32:07;;;;;;;2.58;2.30;;;10.70;99.90;;;;;;5036701;28;20040;-81
2022/06/21 01:34:35;;;;;;;4.47;2.40;;;10.70;99.90;;;;;;5018799;28;20052;-80
2022/06/21 01:37:13;;;;;;;10.10;3.00;;;10.70;99.90;;;;;;5001874;28;20053;-83
2022/06/21 01:39:56;;;;;;;5.85;1.88;;;10.70;99.90;;;;;;5029294;28;20049;-82
2022/06/21 01:42:28;;;;;;;5.15;2.80;;;10.60;99.90;;;;;;5026633;28;20033;-82
2022/06/21 01:45:01;;;;;;;3.78;1.75;;;10.60;99.90;;;;;;5036650;28;20118;-83
2022/06/21 01:47:35;;;;;;;1.92;1.83;;;10.50;99.90;;;;;;5025200;28;20041;-82
2022/06/21 01:50:03;;;;;;;6.88;1.85;;;10.60;99.90;;;;;;5028273;28;20072;-82
2022/06/21 01:52:31;;;;;;;3.60;2.25;;;10.50;99.90;;;;;;5021655;28;20044;-82
2022/06/21 01:55:05;;;;;;;2.13;1.50;;;10.40;99.90;;;;;;5023442;28;20041;-79
2022/06/21 01:57:31;;;;;;;2.53;1.35;;;10.40;99.90;;;;;;5022513;28;20051;-82
2022/06/21 01:59:58;;;;;;;5.22;2.03;;;10.30;99.90;;;;;;5027025;28;20084;-83
2022/06/21 02:02:30;;;;;;;9.57;1.60;;;10.30;99.90;;;;;;5043147;28;20590;-83
2022/06/21 02:05:04;;;;;;;5.88;2.38;;;10.30;99.90;;;;;;5015847;28;20049;-83
2022/06/21 02:07:42;;;;;;;4.00;1.67;;;10.30;99.90;;;;;;5028148;28;20390;-82
2022/06/21 02:10:27;;;;;;;1.60;1.50;;;10.30;99.90;;;;;;5021821;28;20444;-83
2022/06/21 02:13:11;;;;;;;1.92;1.80;;;10.20;99.90;;;;;;5043336;28;20041;-83
2022/06/21 02:15:50;;;;;;;1.85;1.75;;;10.20;99.90;;;;;;5018198;28;20049;-82
2022/06/21 02:18:17;;;;;;;2.47;1.90;;;10.10;99.90;;;;;;5027918;28;20038;-82
2022/06/21 02:21:01;;;;;;;1.90;1.60;;;10.10;99.90;;;;;;5021462;28;20037;-82
2022/06/21 02:23:27;;;;;;;1.75;1.60;;;10.10;99.90;;;;;;5044642;28;20463;-82
2022/06/21 02:25:55;;;;;;;2.05;1.75;;;10.10;99.90;;;;;;5028208;28;20077;-82
2022/06/21 02:28:22;;;;;;;2.33;1.80;;;10.10;99.90;;;;;;5049419;28;20179;-83
2022/06/21 02:30:52;;;;;;;1.92;1.77;;;10.20;99.90;;;;;;5011578;28;20076;-82
2022/06/21 02:33:21;;;;;;;2.42;2.13;;;10.20;99.90;;;;;;5013270;28;20128;-83
2022/06/21 02:35:49;;;;;;;2.28;1.95;;;10.20;99.90;;;;;;5028558;28;20100;-82
2022/06/21 02:38:23;;;;;;;3.58;1.83;;;10.40;99.90;;;;;;5044783;28;20423;-82
2022/06/21 02:40:55;;;;;;;16.30;2.80;;;10.30;99.90;;;;;;5030298;28;20060;-83
2022/06/21 02:43:27;;;;;;;2.03;1.90;;;10.30;99.90;;;;;;5025574;28;20095;-82
2022/06/21 02:46:08;;;;;;;1.90;1.70;;;10.30;99.90;;;;;;5015377;28;20428;-81
2022/06/21 02:49:02;;;;;;;4.38;1.92;;;10.20;99.90;;;;;;5046640;28;20041;-82
2022/06/21 02:51:32;;;;;;;3.78;1.95;;;10.20;99.90;;;;;;4996271;28;20083;-81
2022/06/21 02:54:07;;;;;;;2.20;2.00;;;10.10;99.90;;;;;;5014301;28;20106;-82
2022/06/21 02:56:51;;;;;;;3.38;2.03;;;10.10;99.90;;;;;;5040997;28;20411;-82
2022/06/21 02:59:17;;;;;;;5.03;1.92;;;10.10;99.90;;;;;;5029511;28;20037;-83
2022/06/21 03:01:52;;;;;;;3.10;2.80;;;10.20;99.90;;;;;;5046428;28;20048;-82
2022/06/21 03:04:33;;;;;;;3.00;2.65;;;10.10;99.90;;;;;;5033870;28;20048;-82
2022/06/21 03:07:00;;;;;;;2.90;2.63;;;10.10;99.90;;;;;;5035599;28;20048;-83
2022/06/21 03:09:26;;;;;;;4.28;3.13;;;10.10;99.90;;;;;;5047810;28;20083;-83
2022/06/21 03:11:58;;;;;;;2.58;2.30;;;10.10;99.90;;;;;;5029537;28;20080;-82
2022/06/21 03:14:27;;;;;;;2.55;2.20;;;10.00;99.90;;;;;;5021405;28;20046;-83
2022/06/21 03:16:55;;;;;;;5.80;2.95;;;10.10;99.90;;;;;;5027531;28;20050;-84
2022/06/21 03:19:29;;;;;;;4.75;2.60;;;10.10;99.90;;;;;;5019543;28;20049;-83
2022/06/21 03:21:55;;;;;;;3.30;2.45;;;10.10;99.90;;;;;;5026090;28;20042;-83
2022/06/21 03:24:24;;;;;;;6.18;2.40;;;10.00;99.90;;;;;;5013713;28;20139;-83
2022/06/21 03:27:06;;;;;;;7.07;2.88;;;10.00;99.90;;;;;;5026988;28;20466;-85
2022/06/21 03:29:32;;;;;;;5.07;3.15;;;9.90;99.90;;;;;;5046806;28;20064;-83
2022/06/21 03:31:59;;;;;;;3.75;3.15;;;9.90;99.90;;;;;;5044119;28;20119;-83
2022/06/21 03:34:26;;;;;;;4.90;4.03;;;9.90;99.90;;;;;;5033068;28;20084;-84
2022/06/21 03:36:52;;;;;;;4.60;4.20;;;9.90;99.90;;;;;;5030599;28;20037;-83
2022/06/21 03:41:42;;;;;;;5.05;4.45;;;9.80;99.90;;;;;;5043439;28;20065;-84
2022/06/21 03:42:08;;;;;;;4.30;3.85;;;9.60;99.90;;;;;;5044060;28;20522;-83
2022/06/21 03:44:46;;;;;;;4.05;3.58;;;9.60;99.90;;;;;;5010539;28;20171;-84
2022/06/21 03:47:28;;;;;;;6.60;3.60;;;9.50;99.90;;;;;;5043222;28;20036;-83
2022/06/21 03:50:13;;;;;;;4.78;3.83;;;9.40;99.90;;;;;;5009979;28;20053;-84
2022/06/21 03:52:45;;;;;;;2.72;2.40;;;9.60;99.90;;;;;;4994592;28;20053;-83
2022/06/21 03:55:31;;;;;;;2.95;2.55;;;9.60;99.90;;;;;;5035178;28;20582;-83
2022/06/21 03:58:38;;;;;;;3.47;2.83;;;9.50;99.90;;;;;;5043428;28;20048;-83
2022/06/21 04:01:25;;;;;;;2.70;2.30;;;9.50;99.90;;;;;;5007815;28;20050;-83
2022/06/21 04:04:05;;;;;;;2.80;2.60;;;9.50;99.90;;;;;;5003904;28;20049;-83
2022/06/21 04:06:33;;;;;;;3.20;1.85;;;9.60;99.90;;;;;;5009524;28;20052;-83
2022/06/21 04:09:22;;;;;;;2.28;2.08;;;9.60;99.90;;;;;;5010478;28;20045;-83
2022/06/21 04:12:04;;;;;;;2.78;2.55;;;9.70;99.90;;;;;;5044387;28;20037;-84
2022/06/21 04:14:36;;;;;;;7.22;2.58;;;9.70;99.90;;;;;;5047549;28;20106;-82
2022/06/21 04:17:09;;;;;;;5.75;2.60;;;9.80;99.90;;;;;;5040193;28;20041;-83
2022/06/21 04:19:53;;;;;;;2.70;2.50;;;9.90;99.90;;;;;;5026770;28;20049;-83
2022/06/21 04:22:38;;;;;;;2.58;2.38;;;10.00;99.90;;;;;;5014676;28;20043;-84
2022/06/21 04:25:09;;;;;;;2.72;1.95;;;10.20;99.90;;;;;;5042793;28;20403;-83
2022/06/21 04:27:43;;;;;;;3.92;2.20;;;10.30;99.90;;;;;;5037194;28;20057;-83
2022/06/21 04:30:17;;;;;;;4.40;2.80;;;10.20;99.90;;;;;;5047340;28;20040;-83
2022/06/21 04:32:56;;;;;;;3.63;2.60;;;10.40;99.90;;;;;;5040273;28;20045;-84
2022/06/21 04:35:40;;;;;;;3.40;3.10;;;10.50;99.90;;;;;;5047651;28;20047;-84
2022/06/21 04:38:35;;;;;;;3.90;3.13;;;10.60;99.90;;;;;;5037322;28;20303;-83
2022/06/21 04:41:25;;;;;;;5.72;4.50;;;10.80;99.90;;;;;;5013495;28;20148;-83
2022/06/21 04:44:13;;;;;;;;;;;10.80;99.90;;;;;;5025757;28;20058;-83
2022/06/21 04:46:46;;;;;;;6.13;3.90;;;10.80;99.90;;;;;;5025165;28;20469;-81
2022/06/21 04:49:32;;;;;;;7.68;4.55;;;10.80;99.90;;;;;;5030929;28;20412;-83
2022/06/21 04:52:16;;;;;;;5.30;3.30;;;10.90;99.90;;;;;;5012547;28;20081;-85
2022/06/21 04:54:42;;;;;;;9.55;3.90;;;11.00;99.90;;;;;;5031059;28;20101;-81
2022/06/21 04:57:13;;;;;;;8.07;3.97;;;11.00;99.90;;;;;;4993044;28;20045;-82
2022/06/21 04:59:52;;;;;;;6.32;3.65;;;11.20;99.90;;;;;;5045194;28;20049;-85
2022/06/21 05:02:25;;;;;;;7.63;4.28;;;11.20;99.90;;;;;;5023807;28;20084;-82
2022/06/21 05:05:19;;;;;;;4.95;3.40;;;11.30;99.90;;;;;;5036455;28;20169;-83
2022/06/21 05:07:54;;;;;;;4.88;3.45;;;11.30;99.90;;;;;;5015975;28;20603;-83
2022/06/21 05:10:25;;;;;;;6.32;4.60;;;11.40;99.90;;;;;;5016184;28;20373;-83
2022/06/21 05:12:52;;;;;;;7.85;5.50;;;11.50;99.90;;;;;;5005199;28;20088;-83
2022/06/21 05:15:31;;;;;;;5.70;4.05;;;11.70;99.90;;;;;;5024486;28;20172;-78
2022/06/21 05:18:06;;;;;;;7.72;4.32;;;11.70;99.90;;;;;;5021562;28;20041;-82
2022/06/21 05:20:35;;;;;;;4.88;4.07;;;12.00;99.90;;;;;;5024535;28;20136;-83
2022/06/21 05:23:04;;;;;;;8.65;5.03;;;12.10;99.90;;;;;;5010434;28;20053;-84
2022/06/21 05:25:38;;;;;;;8.25;5.30;;;12.10;99.90;;;;;;5005008;28;20045;-82
2022/06/21 05:28:42;;;;;;;7.03;4.68;;;12.20;99.90;;;;;;5008043;28;20057;-81
2022/06/21 05:31:17;;;;;;;7.38;5.07;;;12.30;99.90;;;;;;5021193;28;20049;-81
2022/06/21 05:33:47;;;;;;;6.93;4.53;;;12.30;99.90;;;;;;5026211;28;20041;-82
2022/06/21 05:36:36;;;;;;;4.47;3.63;;;12.20;99.90;;;;;;5028761;28;20042;-82
2022/06/21 05:39:11;;;;;;;10.13;5.18;;;12.20;99.90;;;;;;5023808;28;20050;-83
2022/06/21 05:41:43;;;;;;;5.43;4.95;;;12.30;99.90;;;;;;5021271;28;20045;-82
2022/06/21 05:44:13;;;;;;;6.80;4.22;;;12.30;99.90;;;;;;5024785;28;20384;-83
2022/06/21 05:46:53;;;;;;;6.80;4.75;;;12.50;99.90;;;;;;5033746;28;20140;-83
2022/06/21 05:49:21;;;;;;;6.25;4.45;;;12.60;99.90;;;;;;5021880;28;20053;-83
2022/06/21 05:51:48;;;;;;;8.45;4.57;;;12.40;99.90;;;;;;5025570;28;20049;-83
2022/06/21 05:54:16;;;;;;;8.05;4.53;;;12.70;99.90;;;;;;5029565;28;20045;-82
2022/06/21 05:56:42;;;;;;;9.55;5.05;;;12.80;99.90;;;;;;5022093;28;20057;-83
2022/06/21 05:59:14;;;;;;;8.57;5.35;;;12.90;99.90;;;;;;5013238;28;20647;-84
2022/06/21 06:01:57;;;;;;;10.90;5.72;;;13.00;99.90;;;;;;5026510;28;20073;-82
2022/06/21 06:04:35;;;;;;;7.10;4.85;;;13.00;99.90;;;;;;5047106;28;20045;-82
2022/06/21 06:07:03;;;;;;;11.55;5.95;;;13.10;99.90;;;;;;5010987;28;20045;-83
2022/06/21 06:09:42;;;;;;;14.57;6.43;;;13.10;99.90;;;;;;5026568;28;20408;-83
2022/06/21 06:12:20;;;;;;;7.13;5.30;;;13.10;99.90;;;;;;5029707;28;20044;-85
2022/06/21 06:15:12;;;;;;;7.82;5.45;;;13.30;99.90;;;;;;5031116;28;20041;-83
2022/06/21 06:17:49;;;;;;;10.68;5.28;;;13.40;99.90;;;;;;5023927;28;20057;-83
2022/06/21 06:20:24;;;;;;;10.07;4.72;;;13.40;99.90;;;;;;5015589;28;20107;-84
2022/06/21 06:23:10;;;;;;;9.20;5.03;;;13.40;99.90;;;;;;5024829;28;20077;-83
2022/06/21 06:25:47;;;;;;;8.75;2.45;;;13.50;99.90;;;;;;5020567;28;20106;-82
2022/06/21 06:28:24;;;;;;;5.65;3.25;;;13.50;99.90;;;;;;5031650;28;20060;-84
2022/06/21 06:31:02;;;;;;;9.35;3.83;;;13.70;99.90;;;;;;5036370;28;20040;-85
2022/06/21 06:33:31;;;;;;;7.85;4.05;;;13.80;99.90;;;;;;5051033;28;20053;-85
2022/06/21 06:36:01;;;;;;;7.40;2.95;;;13.70;99.90;;;;;;5033229;28;20037;-86
2022/06/21 06:38:28;;;;;;;8.18;4.32;;;13.80;99.90;;;;;;5037065;28;20389;-90
2022/06/21 06:41:27;;;;;;;6.38;2.75;;;13.80;99.90;;;;;;5028719;28;20396;-89
2022/06/21 06:43:57;;;;;;;10.32;3.78;;;13.90;99.90;;;;;;5039564;28;20053;-90
2022/06/21 06:46:31;;;;;;;7.20;2.70;;;14.10;99.90;;;;;;5044689;28;20050;-88
2022/06/21 06:49:24;;;;;;;7.10;2.42;;;14.20;99.90;;;;;;5039972;28;20055;-89
2022/06/21 06:52:00;;;;;;;7.53;3.45;;;14.20;99.90;;;;;;5030962;28;20397;-84
2022/06/21 06:54:52;;;;;;;9.13;3.22;;;14.80;99.90;;;;;;5028766;28;20099;-84
2022/06/21 06:57:32;;;;;;;8.30;3.60;;;15.00;99.90;;;;;;4992614;28;20561;-83
2022/06/21 06:59:59;;;;;;;8.73;4.10;;;15.20;99.90;;;;;;5022814;28;20056;-82
2022/06/21 07:02:41;;;;;;;7.70;3.33;;;15.90;99.90;;;;;;5047525;28;20090;-82
2022/06/21 07:05:17;;;;;;;9.60;2.97;;;16.40;99.90;;;;;;5049754;28;20044;-90
2022/06/21 07:07:53;;;;;;;9.77;4.20;;;16.80;99.90;;;;;;5055003;28;20060;-92
2022/06/21 07:10:22;;;;;;;7.22;4.43;;;17.10;99.90;;;;;;5039962;28;20038;-76
2022/06/21 07:12:50;;;;;;;6.82;3.08;;;18.20;99.90;;;;;;5039093;28;20017;-94
2022/06/21 07:15:17;;;;;;;12.63;3.30;;;17.50;99.90;;;;;;5058545;28;20026;-93
2022/06/21 07:17:47;;;;;;;5.75;3.20;;;18.10;99.90;;;;;;5037439;28;20029;-90
2022/06/21 07:20:18;;;;;;;11.35;3.38;;;18.20;99.90;;;;;;5037794;28;20049;-92
2022/06/21 07:22:44;;;;;;;7.30;3.45;;;18.70;99.90;;;;;;5038231;28;20068;-87
2022/06/21 07:25:36;;;;;;;8.18;2.53;;;19.70;99.90;;;;;;5053907;28;20025;-85
2022/06/21 07:28:28;;;;;;;8.77;2.42;;;19.90;99.90;;;;;;5059902;28;20068;-93
2022/06/21 07:30:56;;;;;;;5.75;1.90;;;20.50;99.90;;;;;;5020417;28;20049;-94
2022/06/21 07:33:22;;;;;;;10.00;2.33;;;20.20;99.90;;;;;;5050652;28;20017;-90
2022/06/21 07:35:53;;;;;;;6.88;2.33;;;20.50;99.90;;;;;;5045044;28;20045;-91
2022/06/21 07:38:25;;;;;;;8.27;2.75;;;20.90;99.90;;;;;;5035155;28;20093;-76
2022/06/21 07:40:59;;;;;;;5.15;1.60;;;21.20;99.90;;;;;;5049320;28;20097;-93
2022/06/21 07:43:41;;;;;;;5.53;1.80;;;21.50;99.90;;;;;;5047633;28;20036;-94
2022/06/21 07:46:11;;;;;;;6.72;2.38;;;20.10;99.90;;;;;;5038673;28;20042;-92
2022/06/21 07:48:49;;;;;;;4.18;1.75;;;21.10;99.90;;;;;;5058325;28;20029;-87
2022/06/21 07:51:40;;;;;;;5.65;2.17;;;21.40;99.90;;;;;;5049304;28;20459;-83
2022/06/21 07:54:14;;;;;;;7.88;2.47;;;20.10;99.90;;;;;;5035918;28;20128;-81
2022/06/21 07:56:56;;;;;;;6.45;2.28;;;19.60;99.90;;;;;;5013964;28;20037;-79
2022/06/21 07:59:27;;;;;;;4.22;1.73;;;18.80;99.90;;;;;;5013386;28;20084;-79
2022/06/21 08:07:56;;;;;;;5.90;2.58;;;19.00;99.90;;;;;;5049648;28;20095;-80
2022/06/21 08:10:27;;;;;;;4.97;1.73;;;18.70;99.90;;;;;;5030102;28;20037;-82
2022/06/21 08:12:54;;;;;;;5.20;2.00;;;17.90;99.90;;;;;;5008966;28;20045;-83
2022/06/21 08:15:26;;;;;;;9.63;2.10;;;17.70;99.90;;;;;;5034119;28;20045;-81
2022/06/21 08:18:02;;;;;;;5.70;1.92;;;17.50;99.90;;;;;;5019436;28;20045;-80
2022/06/21 08:20:57;;;;;;;5.55;1.60;;;17.80;99.90;;;;;;5007298;28;20262;-77
2022/06/21 08:23:52;;;;;;;5.25;1.83;;;18.00;99.90;;;;;;4968976;28;20062;-79
2022/06/21 08:26:28;;;;;;;4.18;1.50;;;18.30;99.90;;;;;;5005224;28;20049;-72
2022/06/21 08:29:04;;;;;;;6.70;2.03;;;18.70;99.90;;;;;;5030737;28;20040;-75
2022/06/21 08:31:34;;;;;;;4.20;1.45;;;18.80;99.90;;;;;;5024771;28;20045;-76
2022/06/21 08:34:05;;;;;;;5.53;1.50;;;18.50;99.90;;;;;;5028070;28;20088;-76
2022/06/21 08:36:55;;;;;;;4.95;2.08;;;18.80;99.90;;;;;;5013525;28;20167;-75
2022/06/21 08:39:28;;;;;;;3.67;2.00;;;18.60;99.90;;;;;;4988182;28;20535;-75
2022/06/21 08:42:10;;;;;;;4.30;1.52;;;18.20;99.90;;;;;;5003703;28;20419;-76
2022/06/21 08:44:45;;;;;;;4.50;1.42;;;18.80;99.90;;;;;;5005080;28;20060;-76
2022/06/21 08:47:38;;;;;;;4.80;1.50;;;18.80;99.90;;;;;;5006272;28;20046;-76
2022/06/21 08:50:04;;;;;;;4.03;2.17;;;19.30;99.90;;;;;;5017348;28;20050;-76
2022/06/21 08:52:43;;;;;;;3.63;1.52;;;19.40;99.90;;;;;;5014254;28;20040;-76
2022/06/21 08:55:19;;;;;;;3.58;1.40;;;19.60;99.90;;;;;;5008676;28;20056;-76
2022/06/21 08:58:16;;;;;;;3.53;1.40;;;19.60;99.90;;;;;;5011096;28;20033;-76
2022/06/21 09:00:55;;;;;;;7.35;2.33;;;19.90;99.90;;;;;;5021972;28;20052;-75
2022/06/21 09:03:39;;;;;;;8.77;2.37;;;19.90;99.90;;;;;;5024904;28;20045;-74
2022/06/21 09:06:34;;;;;;;5.38;2.10;;;19.00;99.90;;;;;;5020241;28;20045;-81
2022/06/21 09:09:06;;;;;;;4.60;1.67;;;18.50;99.90;;;;;;5002334;28;20103;-75
2022/06/21 09:11:39;;;;;;;6.90;1.88;;;19.00;99.90;;;;;;5038642;28;20040;-76
2022/06/21 09:14:43;;;;;;;5.57;1.40;;;19.30;99.90;;;;;;5024554;28;20508;-75
2022/06/21 09:17:46;;;;;;;3.80;1.67;;;19.40;99.90;;;;;;4977619;28;20331;-76
2022/06/21 09:20:38;;;;;;;5.05;1.27;;;19.60;99.90;;;;;;5020431;28;20245;-80
2022/06/21 09:23:14;;;;;;;7.97;1.95;;;18.90;99.90;;;;;;5011210;28;20046;-79
2022/06/21 09:25:47;;;;;;;4.63;1.73;;;19.40;99.90;;;;;;5003827;28;20057;-84
2022/06/21 09:28:18;;;;;;;4.32;1.70;;;19.30;99.90;;;;;;5020407;28;20527;-83
2022/06/21 09:30:54;;;;;;;10.30;2.38;;;19.60;99.90;;;;;;5006307;28;20088;-78
2022/06/21 09:33:44;;;;;;;4.72;2.42;;;19.80;99.90;;;;;;5009057;28;20095;-78
2022/06/21 09:36:35;;;;;;;2.97;1.17;;;20.10;99.90;;;;;;5005008;28;20535;-79
2022/06/21 09:39:11;;;;;;;3.45;1.42;;;19.80;99.90;;;;;;4995747;28;20062;-79
2022/06/21 09:41:49;;;;;;;4.55;1.42;;;19.70;99.90;;;;;;5024174;28;20124;-79
2022/06/21 09:44:55;;;;;;;3.80;1.67;;;20.00;99.90;;;;;;5024866;28;20059;-80
2022/06/21 09:47:53;;;;;;;5.32;1.58;;;19.60;99.90;;;;;;4997902;28;20054;-78
2022/06/21 09:50:28;;;;;;;7.90;1.95;;;19.90;99.90;;;;;;4986350;28;20045;-78
2022/06/21 09:53:12;;;;;;;4.82;1.48;;;19.90;99.90;;;;;;5000791;28;20049;-78
2022/06/21 09:55:42;;;;;;;2.60;1.70;;;20.00;99.90;;;;;;5001505;28;20397;-78
2022/06/21 09:58:34;;;;;;;4.38;1.75;;;20.20;99.90;;;;;;5001686;28;20057;-79
2022/06/21 10:01:08;;;;;;;5.20;1.45;;;20.00;99.90;;;;;;5005327;28;20045;-79
2022/06/21 10:03:46;;;;;;;5.00;1.52;;;20.40;99.90;;;;;;5007958;28;20480;-79
2022/06/21 10:06:25;;;;;;;5.05;1.20;;;20.40;99.90;;;;;;4991296;28;21074;-79
2022/06/21 10:09:17;;;;;;;4.97;1.20;;;20.30;99.90;;;;;;5002929;28;20539;-80
2022/06/21 10:11:52;;;;;;;3.00;1.48;;;20.20;99.90;;;;;;4994696;28;20058;-79
2022/06/21 10:14:46;;;;;;;4.07;1.27;;;20.30;99.90;;;;;;5003441;28;20125;-79
2022/06/21 10:17:33;;;;;;;6.50;1.92;;;20.40;99.90;;;;;;4998189;28;20389;-79
2022/06/21 10:20:21;;;;;;;4.75;1.52;;;20.00;99.90;;;;;;5002998;28;20046;-79
2022/06/21 10:23:28;;;;;;;6.50;1.42;;;20.30;99.90;;;;;;5002367;28;20128;-79
2022/06/21 10:26:28;;;;;;;3.30;1.42;;;19.60;99.90;;;;;;5001105;28;20462;-80
2022/06/21 10:29:33;;;;;;;4.35;1.17;;;19.50;99.90;;;;;;4984563;28;20065;-80
2022/06/21 10:32:27;;;;;;;6.60;1.85;;;20.10;99.90;;;;;;4966607;28;20173;-80
2022/06/21 10:34:53;;;;;;;4.50;1.83;;;20.60;99.90;;;;;;4984642;28;20058;-80
2022/06/21 10:37:37;;;;;;;2.67;1.98;;;20.50;99.90;;;;;;5001904;28;20053;-80
2022/06/21 10:40:08;;;;;;;9.63;3.38;;;20.70;99.90;;;;;;5006487;28;20052;-78
2022/06/21 10:42:48;;;;;;;7.70;1.88;;;19.50;99.90;;;;;;5009135;28;20050;-80
2022/06/21 10:45:53;;;;;;;8.10;2.70;;;19.70;99.90;;;;;;5007617;28;20465;-79
2022/06/21 10:48:51;;;;;;;4.82;1.85;;;20.20;99.90;;;;;;5008208;28;20095;-77
2022/06/21 10:51:33;;;;;;;3.75;1.40;;;20.40;99.90;;;;;;5006483;28;20058;-80
2022/06/21 10:54:05;;;;;;;3.33;1.17;;;20.70;99.90;;;;;;5010947;28;20046;-77
2022/06/21 10:57:12;;;;;;;3.25;1.27;;;20.70;99.90;;;;;;5008364;28;20527;-81
2022/06/21 11:02:44;;;;;;;4.18;1.58;;;20.60;99.90;;;;;;5008419;28;20049;-78
2022/06/21 11:05:20;;;;;;;4.47;1.70;;;20.30;99.90;;;;;;5007157;28;20049;-81
2022/06/21 11:08:04;;;;;;;5.80;1.52;;;20.50;99.90;;;;;;5002766;28;20080;-78
2022/06/21 11:10:37;;;;;;;6.57;2.35;;;20.40;99.90;;;;;;5006041;28;20061;-78
2022/06/21 11:13:06;;;;;;;3.58;1.30;;;21.00;99.90;;;;;;5014335;28;20049;-79
2022/06/21 11:15:35;;;;;;;2.72;1.10;;;20.80;99.90;;;;;;5005725;28;20034;-79
2022/06/21 11:18:30;;;;;;;3.88;1.58;;;21.20;99.90;;;;;;5008104;28;20069;-79
2022/06/21 11:21:16;;;;;;;3.13;1.55;;;20.90;99.90;;;;;;4983805;28;20038;-79
2022/06/21 11:23:57;;;;;;;6.57;1.58;;;21.10;99.90;;;;;;5001428;28;20096;-79
2022/06/21 11:26:44;;;;;;;4.25;1.63;;;21.10;99.90;;;;;;5016813;28;20045;-80
2022/06/21 11:29:31;;;;;;;5.55;2.28;;;20.90;99.90;;;;;;5027724;28;20056;-80
2022/06/21 11:32:10;;;;;;;4.72;1.65;;;21.20;99.90;;;;;;5010171;28;20041;-81
2022/06/21 11:34:42;;;;;;;2.42;1.52;;;20.80;99.90;;;;;;5006700;28;20052;-79
2022/06/21 11:37:38;;;;;;;3.97;1.20;;;20.70;99.90;;;;;;5002885;28;20046;-81
2022/06/21 11:40:33;;;;;;;3.30;1.40;;;21.00;99.90;;;;;;5004004;28;20080;-82
2022/06/21 11:42:59;;;;;;;2.95;1.38;;;21.10;99.90;;;;;;5012513;28;20088;-80
2022/06/21 11:45:39;;;;;;;5.25;1.30;;;21.30;99.90;;;;;;5036851;28;20412;-78
2022/06/21 11:48:21;;;;;;;3.55;1.23;;;21.30;99.90;;;;;;5009033;28;20049;-79
2022/06/21 11:50:55;;;;;;;5.63;1.77;;;21.50;99.90;;;;;;5008809;28;20049;-79
2022/06/21 11:53:33;;;;;;;4.35;1.35;;;21.40;99.90;;;;;;5025307;28;20124;-80
2022/06/21 11:56:29;;;;;;;2.45;1.00;;;21.40;99.90;;;;;;5008697;28;20064;-80
2022/06/21 11:59:24;;;;;;;2.40;1.25;;;21.50;99.90;;;;;;5008998;28;20042;-75
2022/06/21 12:02:14;;;;;;;4.05;2.20;;;21.60;99.90;;;;;;4989079;28;20108;-80
2022/06/21 12:05:24;;;;;;;4.15;1.52;;;21.60;99.90;;;;;;5025950;28;20095;-80
2022/06/21 12:07:59;;;;;;;;;;;21.40;99.90;;;;;;5010905;28;20061;-77
2022/06/21 12:10:49;;;;;;;3.25;1.17;;;21.00;99.90;;;;;;5007684;28;19928;-91
2022/06/21 12:13:55;;;;;;;5.25;1.35;;;21.00;99.90;;;;;;5014671;28;20345;-83
2022/06/21 12:16:47;;;;;;;3.15;0.85;;;21.20;99.90;;;;;;5026302;28;20456;-81
2022/06/21 12:19:24;;;;;;;6.57;1.45;;;21.20;99.90;;;;;;5025842;28;21269;-80
2022/06/21 12:22:15;;;;;;;3.38;1.00;;;21.30;99.90;;;;;;5044974;28;20036;-90
2022/06/21 12:24:41;;;;;;;2.00;1.00;;;21.30;99.90;;;;;;5047400;28;20045;-82
2022/06/21 12:27:11;;;;;;;2.20;1.00;;;21.20;99.90;;;;;;5047138;28;20391;-82
2022/06/21 12:29:37;;;;;;;;;;;21.80;99.90;;;;;;5034400;28;20415;-79
2022/06/21 12:32:06;;;;;;;3.63;1.40;;;21.60;99.90;;;;;;5036945;28;19921;-84
2022/06/21 12:34:47;;;;;;;2.80;1.08;;;21.60;99.90;;;;;;5013890;28;20045;-85
2022/06/21 12:37:17;;;;;;;2.85;1.05;;;21.60;99.90;;;;;;5046071;28;20033;-89
2022/06/21 12:39:59;;;;;;;4.70;1.47;;;21.50;99.90;;;;;;5038717;28;20442;-87
2022/06/21 12:42:43;;;;;;;4.20;0.90;;;21.70;99.90;;;;;;5027929;28;20300;-81
2022/06/21 12:45:31;;;;;;;2.03;1.00;;;21.40;99.90;;;;;;5012757;28;20124;-81
2022/06/21 12:48:32;;;;;;;4.07;1.42;;;21.50;99.90;;;;;;5025890;28;20500;-86
2022/06/21 12:51:15;;;;;;;2.25;1.00;;;21.60;99.90;;;;;;5013147;28;20048;-77
2022/06/21 12:54:11;;;;;;;2.50;1.25;;;21.40;99.90;;;;;;4988845;28;20041;-81
2022/06/21 12:56:56;;;;;;;2.63;0.73;;;21.30;99.90;;;;;;4997771;28;20044;-77
2022/06/21 12:59:43;;;;;;;3.13;0.88;;;21.90;99.90;;;;;;5032573;28;20045;-76
2022/06/21 13:02:40;;;;;;;74.90;5.68;;;22.20;99.90;;;;;;5004661;28;20416;-79
2022/06/21 13:05:43;;;;;;;4.20;1.25;;;21.70;99.90;;;;;;5006824;28;20177;-82
2022/06/21 13:08:47;;;;;;;4.00;1.52;;;21.70;99.90;;;;;;4953374;28;20059;-83
2022/06/21 13:11:32;;;;;;;3.13;0.85;;;21.40;99.90;;;;;;5009620;28;20041;-86
2022/06/21 13:14:13;;;;;;;2.90;0.75;;;21.30;99.90;;;;;;4998716;28;20088;-87
2022/06/21 13:16:53;;;;;;;2.70;0.88;;;21.40;99.90;;;;;;5008247;28;20205;-85
2022/06/21 13:19:34;;;;;;;4.88;1.00;;;21.60;99.90;;;;;;4993011;28;20755;-83
2022/06/21 13:22:34;;;;;;;4.38;0.82;;;21.30;99.90;;;;;;4988910;28;20045;-85
2022/06/21 13:25:08;;;;;;;5.85;1.25;;;21.40;99.90;;;;;;4994132;28;20554;-85
2022/06/21 13:27:34;;;;;;;2.35;1.50;;;21.60;99.90;;;;;;5016378;28;20517;-85
2022/06/21 13:30:15;;;;;;;4.13;1.25;;;21.40;99.90;;;;;;5009980;28;20038;-83
2022/06/21 13:33:04;;;;;;;2.85;1.35;;;21.20;99.90;;;;;;5035642;28;20129;-80
2022/06/21 13:35:54;;;;;;;3.90;1.33;;;21.00;99.90;;;;;;5025156;28;20408;-83
2022/06/21 13:38:28;;;;;;;1.85;1.05;;;21.30;99.90;;;;;;5033045;28;20411;-89
2022/06/21 13:44:38;;;;;;;3.00;1.10;;;21.50;99.90;;;;;;5008277;28;20092;-85
2022/06/21 13:47:31;;;;;;;3.70;1.27;;;21.60;99.90;;;;;;5017350;28;20124;-84
2022/06/21 13:50:26;;;;;;;3.58;1.10;;;21.50;99.90;;;;;;5003856;28;20042;-83
2022/06/21 13:53:04;;;;;;;3.05;0.80;;;21.60;99.90;;;;;;5014979;28;20080;-84
2022/06/21 13:55:42;;;;;;;5.68;1.98;;;21.70;99.90;;;;;;5007434;28;20236;-85
2022/06/21 13:58:34;;;;;;;5.38;1.45;;;21.80;99.90;;;;;;5006133;28;20620;-85